Zerkel, Minnesota
Current Conditions -  °F | °C
As of 11:15 PM on Friday 28 Nov 2014 (Local Time) from KFSE Reporting Station
Broken Clouds Broken Clouds  
Wind Chill:   Ceiling: 11000
Heat Index: 16°   Visibility: 10mi
Dew Point: 12°   Wind: 9mph
Humidity: 86%   Direction: 180°S
Pressure: 29.59"   Gusts: NA
Location:  47.3892°N, 95.4294°W
Report Text: KFSE 290515Z AUTO 18008KT 10SM SCT090 BKN110 M09/M11 A2959 RMK AO2
Loading
Personal Weather Stations






























Interactive Weather Map New forecast layout! Learn more

10-Day Weather Forecast

Advertisements
Track Severe Weather on mobile